Terminal Aerodrome Forecast
Issued by NWS Sioux Falls, SD

Home | Current Version | Previous Version | Graphics & Text | Print | Product List | Glossary On
Versions: 1 2 3 4 5 6 7 8 9 10 11 12 13 14 15 16 17 18 19 20 21
000
FTUS43 KFSD 231652 AAB
TAFHON
TAF AMD
KHON 231652Z 2317/2412 12014G21KT P6SM OVC008
     FM231900 12014G21KT P6SM BKN015
     FM232000 13014G20KT P6SM SCT035
     FM240200 13014G20KT P6SM SKC WS015/16045KT
     FM240700 14013G19KT P6SM SKC=

USA.gov is the U.S. government's official web portal to all federal, state and local government web resources and services.